createdAt,value
2023-03-10T00:00:12.625Z,98247.03
2023-03-10T00:02:46.504Z,98262.84
2023-03-10T00:05:16.441Z,98280.47
2023-03-10T00:07:44.629Z,98277.19
2023-03-10T00:10:13.288Z,98290.31
2023-03-10T00:12:41.329Z,98292.38
2023-03-10T00:15:10.540Z,98290.38
2023-03-10T00:17:38.460Z,98306.38
2023-03-10T00:20:07.968Z,98305.75
2023-03-10T00:22:37.355Z,98307.16
2023-03-10T00:25:06.082Z,98299.63
2023-03-10T00:27:34.003Z,98302.28
2023-03-10T00:30:01.921Z,98308.63
2023-03-10T00:32:29.836Z,98310.47
2023-03-10T00:34:58.496Z,98323.94
2023-03-10T00:37:26.446Z,98319.13
2023-03-10T00:39:55.796Z,98343.22
2023-03-10T00:42:23.948Z,98339.56
2023-03-10T00:44:53.233Z,98353.47
2023-03-10T00:47:23.131Z,98353.03
2023-03-10T00:49:52.416Z,98342.81
2023-03-10T00:52:20.481Z,98357.31
2023-03-10T00:54:48.472Z,98367.75
2023-03-10T00:57:17.725Z,98371.00
2023-03-10T00:59:50.411Z,98388.16
2023-03-10T01:02:19.015Z,98404.53
2023-03-10T01:04:46.970Z,98417.63
2023-03-10T01:07:15.162Z,98421.72
2023-03-10T01:09:44.009Z,98438.88
2023-03-10T01:12:12.335Z,98438.06
2023-03-10T01:14:41.637Z,98445.63
2023-03-10T01:17:10.530Z,98442.97
2023-03-10T01:19:38.449Z,98470.72
2023-03-10T01:22:06.526Z,98476.88
2023-03-10T01:24:34.511Z,98496.47
2023-03-10T01:27:02.551Z,98496.47
2023-03-10T01:29:30.458Z,98511.81
2023-03-10T01:31:59.732Z,98515.06
2023-03-10T01:34:27.753Z,98526.28
2023-03-10T01:36:55.826Z,98517.91
2023-03-10T01:39:23.947Z,98539.56
2023-03-10T01:41:51.844Z,98549.94
2023-03-10T01:44:21.011Z,98556.88
2023-03-10T01:46:50.702Z,98564.59
2023-03-10T01:49:36.395Z,98583.75
2023-03-10T01:52:06.547Z,98575.78
2023-03-10T01:54:39.964Z,98571.28
2023-03-10T01:57:07.961Z,98567.38
2023-03-10T01:59:35.877Z,98583.69
2023-03-10T02:02:04.288Z,98585.69
2023-03-10T02:04:36.210Z,98597.50
2023-03-10T02:07:05.853Z,98599.09
2023-03-10T02:09:35.007Z,98628.50
2023-03-10T02:12:03.398Z,98622.78
2023-03-10T02:14:31.902Z,98625.66
2023-03-10T02:16:59.896Z,98648.91
2023-03-10T02:19:42.981Z,98663.94
2023-03-10T02:22:11.732Z,98649.97
2023-03-10T02:24:44.445Z,98661.34
2023-03-10T02:27:19.064Z,98685.84
2023-03-10T02:29:58.874Z,98672.28
2023-03-10T02:32:32.046Z,98713.81
2023-03-10T02:35:01.082Z,98698.31
2023-03-10T02:37:30.636Z,98712.56
2023-03-10T02:39:59.039Z,98709.66
2023-03-10T02:42:30.031Z,98718.34
2023-03-10T02:44:58.075Z,98738.47
2023-03-10T02:47:25.975Z,98756.81
2023-03-10T02:49:54.107Z,98763.94
2023-03-10T02:52:27.134Z,98784.16
2023-03-10T02:54:55.174Z,98802.59
2023-03-10T02:57:23.081Z,98823.22
2023-03-10T02:59:52.350Z,98832.97
2023-03-10T03:02:20.258Z,98851.41
2023-03-10T03:04:48.130Z,98852.56
2023-03-10T03:07:16.101Z,98864.19
2023-03-10T03:09:44.014Z,98862.72
2023-03-10T03:12:12.018Z,98886.47
2023-03-10T03:14:39.937Z,98905.63
2023-03-10T03:17:09.919Z,98909.16
2023-03-10T03:19:37.993Z,98917.84
2023-03-10T03:22:05.951Z,98911.25
2023-03-10T03:24:33.974Z,98944.44
2023-03-10T03:27:03.397Z,98939.34
2023-03-10T03:29:31.294Z,98966.75
2023-03-10T03:32:00.201Z,98989.63
2023-03-10T03:34:32.983Z,98994.84
2023-03-10T03:37:04.059Z,99012.75
2023-03-10T03:39:36.166Z,99017.47
2023-03-10T03:42:07.696Z,99030.34
2023-03-10T03:44:44.551Z,99043.84
2023-03-10T03:47:12.980Z,99055.72
2023-03-10T03:49:42.749Z,99061.69
2023-03-10T03:52:12.510Z,99082.94
2023-03-10T03:54:40.712Z,99094.47
2023-03-10T03:57:09.175Z,99112.59
2023-03-10T03:59:37.224Z,99111.28
2023-03-10T04:02:05.949Z,99118.59
2023-03-10T04:04:34.096Z,99132.91
2023-03-10T04:07:03.806Z,99147.13
2023-03-10T04:09:31.849Z,99153.56
2023-03-10T04:12:00.483Z,99171.72
2023-03-10T04:14:28.630Z,99180.59
2023-03-10T04:16:57.834Z,99183.94
2023-03-10T04:19:25.857Z,99171.19
2023-03-10T04:21:59.263Z,99196.13
2023-03-10T04:24:28.674Z,99200.94
2023-03-10T04:26:57.112Z,99212.47
2023-03-10T04:29:25.366Z,99207.91
2023-03-10T04:32:05.355Z,99221.41
2023-03-10T04:34:37.364Z,99232.00
2023-03-10T04:37:05.340Z,99252.66
2023-03-10T04:39:35.757Z,99269.50
2023-03-10T04:42:04.115Z,99272.66
2023-03-10T04:44:32.199Z,99282.84
2023-03-10T04:47:03.094Z,99293.13
2023-03-10T04:49:31.885Z,99294.28
2023-03-10T04:52:01.073Z,99312.44
2023-03-10T04:54:29.421Z,99324.00
2023-03-10T04:56:59.082Z,99346.78
2023-03-10T04:59:27.379Z,99351.91
2023-03-10T05:01:55.452Z,99354.88
2023-03-10T05:04:24.142Z,99343.47
2023-03-10T05:06:53.798Z,99381.13
2023-03-10T05:09:29.041Z,99394.00
2023-03-10T05:11:57.083Z,99405.00
2023-03-10T05:14:27.003Z,99431.97
2023-03-10T05:16:54.899Z,99443.28
2023-03-10T05:19:22.871Z,99485.19
2023-03-10T05:21:51.756Z,99502.56
2023-03-10T05:24:19.674Z,99522.03
2023-03-10T05:26:47.720Z,99532.97
2023-03-10T05:29:15.649Z,99525.47
2023-03-10T05:31:49.941Z,99525.13
2023-03-10T05:34:26.762Z,99522.19
2023-03-10T05:36:57.624Z,99546.28
2023-03-10T05:39:26.106Z,99546.16
2023-03-10T05:41:56.898Z,99561.72
2023-03-10T05:44:28.499Z,99606.03
2023-03-10T05:46:58.056Z,99616.91
2023-03-10T05:49:26.074Z,99615.69
2023-03-10T05:51:54.527Z,99619.34
2023-03-10T05:54:22.944Z,99605.03
2023-03-10T05:56:50.916Z,99587.06
2023-03-10T05:59:21.441Z,99601.72
2023-03-10T06:01:50.250Z,99628.50
2023-03-10T06:04:19.551Z,99624.53
2023-03-10T06:06:47.509Z,99631.69
2023-03-10T06:09:15.462Z,99648.81
2023-03-10T06:11:43.322Z,99664.63
2023-03-10T06:14:11.291Z,99685.41
2023-03-10T06:16:39.406Z,99687.66
2023-03-10T06:19:07.483Z,99696.84
2023-03-10T06:21:36.765Z,99711.84
2023-03-10T06:24:04.724Z,99716.88
2023-03-10T06:26:32.621Z,99708.97
2023-03-10T06:29:00.558Z,99731.25
2023-03-10T06:31:28.462Z,99746.00
2023-03-10T06:33:56.412Z,99747.41
2023-03-10T06:36:26.070Z,99751.59
2023-03-10T06:38:55.506Z,99768.19
2023-03-10T06:41:23.426Z,99762.50
2023-03-10T06:43:51.375Z,99777.34
2023-03-10T06:46:19.436Z,99788.97
2023-03-10T06:48:47.370Z,99787.16
2023-03-10T06:51:16.488Z,99791.50
2023-03-10T06:53:44.389Z,99808.97
2023-03-10T06:56:14.582Z,99825.31
2023-03-10T06:58:42.817Z,99834.50
2023-03-10T07:01:10.879Z,99854.41
2023-03-10T07:03:38.962Z,99878.66
2023-03-10T07:06:09.201Z,99898.03
2023-03-10T07:08:37.153Z,99907.22
2023-03-10T07:11:05.256Z,99912.19
2023-03-10T07:13:34.620Z,99928.28
2023-03-10T07:16:02.689Z,99934.38
2023-03-10T07:18:30.556Z,99944.34
2023-03-10T07:20:58.438Z,99946.28
2023-03-10T07:23:26.707Z,99971.09
2023-03-10T07:25:55.045Z,99958.81
2023-03-10T07:28:22.984Z,99978.75
2023-03-10T07:30:52.387Z,100001.50
2023-03-10T07:33:20.356Z,100017.03
2023-03-10T07:35:48.265Z,100020.34
2023-03-10T07:38:16.263Z,100017.44
2023-03-10T07:40:44.193Z,100023.38
2023-03-10T07:43:12.098Z,100024.47
2023-03-10T07:45:40.247Z,100021.69
2023-03-10T07:48:09.549Z,100033.97
2023-03-10T07:50:37.672Z,100059.41
2023-03-10T07:53:05.668Z,100076.94
2023-03-10T07:55:33.783Z,100092.94
2023-03-10T07:58:01.752Z,100105.56
2023-03-10T08:00:29.950Z,100124.06
2023-03-10T08:02:57.960Z,100130.84
2023-03-10T08:05:27.495Z,100149.44
2023-03-10T08:07:55.537Z,100162.63
2023-03-10T08:10:23.469Z,100175.53
2023-03-10T08:12:51.551Z,100197.91
2023-03-10T08:15:19.459Z,100222.13
2023-03-10T08:17:47.648Z,100219.19
2023-03-10T08:20:15.791Z,100244.22
2023-03-10T08:22:45.255Z,100260.75
2023-03-10T08:25:13.300Z,100272.53
2023-03-10T08:27:42.171Z,100298.69
2023-03-10T08:30:11.230Z,100287.53
2023-03-10T08:32:39.141Z,100289.78
2023-03-10T08:35:08.609Z,100293.91
2023-03-10T08:37:36.802Z,100300.16
2023-03-10T08:40:08.215Z,100305.72
2023-03-10T08:42:37.088Z,100313.38
2023-03-10T08:45:08.437Z,100321.72
2023-03-10T08:47:37.166Z,100347.78
2023-03-10T08:50:05.525Z,100366.97
2023-03-10T08:52:33.584Z,100399.06
2023-03-10T08:55:01.522Z,100401.53
2023-03-10T08:57:30.946Z,100411.97
2023-03-10T08:59:58.955Z,100437.41
2023-03-10T09:02:28.247Z,100426.00
2023-03-10T09:04:56.630Z,100428.94
2023-03-10T09:07:24.712Z,100432.00
2023-03-10T09:09:52.647Z,100426.66
2023-03-10T09:12:21.057Z,100449.88
2023-03-10T09:14:50.524Z,100440.84
2023-03-10T09:17:18.827Z,100451.84
2023-03-10T09:19:47.565Z,100438.06
2023-03-10T09:22:15.443Z,100421.16
2023-03-10T09:24:43.811Z,100432.34
2023-03-10T09:27:11.913Z,100439.59
2023-03-10T09:29:43.342Z,100444.75
2023-03-10T09:32:13.474Z,100459.34
2023-03-10T09:34:41.527Z,100473.81
2023-03-10T09:37:09.485Z,100496.91
2023-03-10T09:39:37.421Z,100512.47
2023-03-10T09:42:38.237Z,100486.34
2023-03-10T09:45:28.817Z,100505.41
2023-03-10T09:48:15.779Z,100495.56
2023-03-10T09:50:44.213Z,100511.69
2023-03-10T09:53:28.985Z,100518.22
2023-03-10T09:55:56.944Z,100521.84
2023-03-10T09:58:30.481Z,100525.88
2023-03-10T10:00:58.473Z,100542.84
2023-03-10T10:03:33.410Z,100539.25
2023-03-10T10:06:03.405Z,100551.19
2023-03-10T10:08:45.036Z,100575.66
2023-03-10T10:11:17.637Z,100607.50
2023-03-10T10:13:46.184Z,100611.84
2023-03-10T10:16:33.809Z,100608.38
2023-03-10T10:19:05.211Z,100614.91
2023-03-10T10:21:42.674Z,100596.81
2023-03-10T10:24:11.348Z,100602.97
2023-03-10T10:26:39.287Z,100623.59
2023-03-10T10:29:15.222Z,100624.97
2023-03-10T10:31:43.188Z,100627.38
2023-03-10T10:34:21.556Z,100640.59
2023-03-10T10:36:51.858Z,100628.63
2023-03-10T10:39:26.846Z,100638.38
2023-03-10T10:41:55.970Z,100658.16
2023-03-10T10:44:23.979Z,100688.75
2023-03-10T10:46:53.001Z,100700.19
2023-03-10T10:49:23.853Z,100711.91
2023-03-10T10:51:59.469Z,100717.22
2023-03-10T10:54:29.236Z,100719.00
2023-03-10T10:56:58.059Z,100715.66
2023-03-10T10:59:29.355Z,100705.78
2023-03-10T11:01:58.575Z,100729.72
2023-03-10T11:04:28.687Z,100743.97
2023-03-10T11:07:10.471Z,100759.81
2023-03-10T11:09:38.497Z,100752.88
2023-03-10T11:12:09.187Z,100722.53
2023-03-10T11:14:52.308Z,100711.97
2023-03-10T11:17:23.706Z,100706.41
2023-03-10T11:20:05.109Z,100716.41
2023-03-10T11:22:38.209Z,100731.75
2023-03-10T11:25:12.634Z,100725.19
2023-03-10T11:27:47.614Z,100712.78
2023-03-10T11:30:21.401Z,100739.28
2023-03-10T11:32:58.752Z,100729.50
2023-03-10T11:35:32.933Z,100793.94
2023-03-10T11:38:07.548Z,100817.34
2023-03-10T11:40:39.358Z,100819.56
2023-03-10T11:43:09.415Z,100831.28
2023-03-10T11:45:38.933Z,100824.72
2023-03-10T11:48:20.999Z,100831.06
2023-03-10T11:50:52.824Z,100815.53
2023-03-10T11:53:31.432Z,100838.88
2023-03-10T11:55:59.543Z,100824.03
2023-03-10T11:58:29.129Z,100785.75
2023-03-10T12:00:57.035Z,100795.81
2023-03-10T12:03:41.902Z,100806.78
2023-03-10T12:06:13.298Z,100795.94
2023-03-10T12:08:41.289Z,100793.22
2023-03-10T12:11:13.789Z,100798.22
2023-03-10T12:13:44.649Z,100792.78
2023-03-10T12:16:15.650Z,100802.28
2023-03-10T12:18:43.823Z,100820.00
2023-03-10T12:21:20.963Z,100821.53
2023-03-10T12:23:50.127Z,100815.34
2023-03-10T12:26:44.801Z,100795.88
2023-03-10T12:29:37.362Z,100825.84
2023-03-10T12:32:05.577Z,100852.03
2023-03-10T12:34:33.711Z,100838.25
2023-03-10T12:37:08.145Z,100807.97
2023-03-10T12:39:41.168Z,100813.66
2023-03-10T12:42:30.803Z,100815.94
2023-03-10T12:45:21.355Z,100815.13
2023-03-10T12:47:54.726Z,100830.47
2023-03-10T12:50:28.526Z,100829.78
2023-03-10T12:53:00.634Z,100814.16
2023-03-10T12:55:28.905Z,100830.16
2023-03-10T12:58:04.689Z,100833.22
2023-03-10T13:00:39.886Z,100834.22
2023-03-10T13:03:14.433Z,100844.75
2023-03-10T13:05:44.209Z,100845.72
2023-03-10T13:08:17.696Z,100861.38
2023-03-10T13:10:45.660Z,100872.97
2023-03-10T13:13:17.010Z,100861.75
2023-03-10T13:15:45.046Z,100871.69
2023-03-10T13:18:18.127Z,100871.00
2023-03-10T13:20:46.356Z,100862.59
2023-03-10T13:23:23.915Z,100851.81
2023-03-10T13:25:55.839Z,100873.34
2023-03-10T13:28:24.064Z,100894.59
2023-03-10T13:30:52.090Z,100894.59
2023-03-10T13:33:24.005Z,100894.09
2023-03-10T13:35:53.856Z,100921.84
2023-03-10T13:38:24.872Z,100891.81
2023-03-10T13:40:59.924Z,100871.06
2023-03-10T13:43:34.817Z,100854.19
2023-03-10T13:46:03.460Z,100835.34
2023-03-10T13:48:32.377Z,100845.56
2023-03-10T13:51:08.122Z,100820.28
2023-03-10T13:53:37.571Z,100836.78
2023-03-10T13:56:19.289Z,100831.03
2023-03-10T13:58:47.477Z,100817.50
2023-03-10T14:01:19.898Z,100819.41
2023-03-10T14:03:53.480Z,100811.38
2023-03-10T14:06:22.904Z,100819.81
2023-03-10T14:08:52.657Z,100804.53
2023-03-10T14:11:25.073Z,100813.66
2023-03-10T14:13:53.096Z,100830.81
2023-03-10T14:16:20.989Z,100835.59
2023-03-10T14:18:48.987Z,100839.75
2023-03-10T14:21:52.383Z,100853.78
2023-03-10T14:24:28.017Z,100843.59
2023-03-10T14:26:56.307Z,100835.78
2023-03-10T14:29:24.183Z,100845.72
2023-03-10T14:31:52.347Z,100847.38
2023-03-10T14:34:20.400Z,100839.94
2023-03-10T14:36:48.393Z,100840.97
2023-03-10T14:39:16.392Z,100849.31
2023-03-10T14:41:47.406Z,100848.94
2023-03-10T14:44:16.376Z,100842.59
2023-03-10T14:46:46.240Z,100851.13
2023-03-10T14:49:15.551Z,100873.66
2023-03-10T14:51:43.456Z,100876.50
2023-03-10T14:54:15.276Z,100886.59
2023-03-10T14:56:43.194Z,100875.03
2023-03-10T14:59:13.228Z,100851.72
2023-03-10T15:01:41.456Z,100858.69
2023-03-10T15:04:13.424Z,100864.19
2023-03-10T15:06:41.569Z,100856.97
2023-03-10T15:09:09.566Z,100873.34
2023-03-10T15:11:37.910Z,100880.88
2023-03-10T15:14:05.998Z,100888.00
2023-03-10T15:16:35.315Z,100886.19
2023-03-10T15:19:03.301Z,100873.91
2023-03-10T15:21:31.259Z,100885.91
2023-03-10T15:23:59.378Z,100869.03
2023-03-10T15:26:27.468Z,100858.25
2023-03-10T15:28:55.442Z,100863.03
2023-03-10T15:31:23.484Z,100867.94
2023-03-10T15:33:52.752Z,100862.91
2023-03-10T15:36:20.725Z,100871.81
2023-03-10T15:38:48.757Z,100857.88
2023-03-10T15:41:17.270Z,100868.47
2023-03-10T15:43:45.412Z,100859.97
2023-03-10T15:46:13.419Z,100849.59
2023-03-10T15:48:41.493Z,100839.09
2023-03-10T15:51:13.029Z,100834.19
2023-03-10T15:53:41.679Z,100844.53
2023-03-10T15:56:09.963Z,100829.81
2023-03-10T15:58:37.961Z,100823.69
2023-03-10T16:01:09.726Z,100820.13
2023-03-10T16:03:37.814Z,100839.41
2023-03-10T16:06:06.090Z,100846.41
2023-03-10T16:08:37.470Z,100833.69
2023-03-10T16:11:06.008Z,100839.56
2023-03-10T16:13:33.928Z,100837.66
2023-03-10T16:16:05.848Z,100833.19
2023-03-10T16:18:34.293Z,100830.94
2023-03-10T16:21:02.970Z,100839.34
2023-03-10T16:23:31.878Z,100855.53
2023-03-10T16:26:09.077Z,100884.00
2023-03-10T16:28:37.547Z,100854.28
2023-03-10T16:31:06.242Z,100813.69
2023-03-10T16:33:34.608Z,100805.31
2023-03-10T16:36:02.707Z,100819.28
2023-03-10T16:38:30.803Z,100834.78
2023-03-10T16:40:59.063Z,100856.69
2023-03-10T16:43:29.909Z,100836.19
2023-03-10T16:46:06.039Z,100811.94
2023-03-10T16:48:34.034Z,100792.81
2023-03-10T16:51:01.909Z,100762.97
2023-03-10T16:53:29.855Z,100750.69
2023-03-10T16:56:04.677Z,100754.19
2023-03-10T16:58:34.247Z,100766.59
2023-03-10T17:01:02.312Z,100775.22
2023-03-10T17:03:30.306Z,100800.50
2023-03-10T17:05:58.351Z,100814.41
2023-03-10T17:08:26.423Z,100821.81
2023-03-10T17:10:54.480Z,100828.22
2023-03-10T17:13:22.425Z,100848.56
2023-03-10T17:15:51.695Z,100866.69
2023-03-10T17:18:20.468Z,100866.13
2023-03-10T17:20:48.444Z,100860.16
2023-03-10T17:23:16.307Z,100851.50
2023-03-10T17:25:44.280Z,100860.53
2023-03-10T17:28:12.446Z,100844.94
2023-03-10T17:30:40.676Z,100839.38
2023-03-10T17:33:10.038Z,100854.41
2023-03-10T17:35:38.608Z,100842.97
2023-03-10T17:38:06.768Z,100843.25
2023-03-10T17:40:34.873Z,100837.41
2023-03-10T17:43:17.335Z,100838.06
2023-03-10T17:45:57.023Z,100866.41
2023-03-10T17:48:26.514Z,100863.16
2023-03-10T17:50:54.480Z,100857.31
2023-03-10T17:53:22.368Z,100866.50
2023-03-10T17:55:50.388Z,100854.22
2023-03-10T17:58:18.422Z,100852.00
2023-03-10T18:00:46.613Z,100856.56
2023-03-10T18:03:14.657Z,100861.16
2023-03-10T18:05:44.736Z,100828.69
2023-03-10T18:08:13.481Z,100812.22
2023-03-10T18:10:41.442Z,100838.97
2023-03-10T18:13:10.426Z,100845.38
2023-03-10T18:15:38.636Z,100846.31
2023-03-10T18:18:06.977Z,100840.63
2023-03-10T18:20:36.354Z,100847.28
2023-03-10T18:23:05.691Z,100850.44
2023-03-10T18:25:33.560Z,100835.81
2023-03-10T18:28:01.891Z,100828.00
2023-03-10T18:30:29.791Z,100814.34
2023-03-10T18:32:57.728Z,100818.38
2023-03-10T18:35:25.630Z,100835.75
2023-03-10T18:37:53.636Z,100856.19
2023-03-10T18:40:23.014Z,100855.75
2023-03-10T18:42:51.034Z,100857.09
2023-03-10T18:45:18.974Z,100845.63
2023-03-10T18:47:47.004Z,100813.59
2023-03-10T18:50:15.177Z,100817.63
2023-03-10T18:52:43.205Z,100843.19
2023-03-10T18:55:11.934Z,100858.59
2023-03-10T18:57:41.333Z,100871.13
2023-03-10T19:00:14.585Z,100865.94
2023-03-10T19:02:42.660Z,100874.72
2023-03-10T19:05:13.105Z,100885.28
2023-03-10T19:07:41.126Z,100878.91
2023-03-10T19:10:10.171Z,100865.84
2023-03-10T19:12:38.280Z,100859.84
2023-03-10T19:15:09.553Z,100852.88
2023-03-10T19:17:37.780Z,100851.19
2023-03-10T19:20:07.646Z,100869.44
2023-03-10T19:22:36.810Z,100871.97
2023-03-10T19:25:05.113Z,100885.63
2023-03-10T19:27:32.994Z,100878.41
2023-03-10T19:30:00.983Z,100883.53
2023-03-10T19:32:30.339Z,100880.06
2023-03-10T19:34:58.405Z,100877.56
2023-03-10T19:37:26.345Z,100878.97
2023-03-10T19:39:54.270Z,100885.09
2023-03-10T19:42:22.357Z,100870.06
2023-03-10T19:44:50.287Z,100862.88
2023-03-10T19:47:19.282Z,100855.50
2023-03-10T19:49:48.536Z,100868.72
2023-03-10T19:52:16.505Z,100880.00
2023-03-10T19:54:44.413Z,100896.72
2023-03-10T19:57:13.713Z,100897.56
2023-03-10T19:59:41.634Z,100899.34
2023-03-10T20:02:09.704Z,100904.66
2023-03-10T20:04:38.632Z,100913.53
2023-03-10T20:07:08.115Z,100896.59
2023-03-10T20:09:36.602Z,100864.88
2023-03-10T20:12:05.026Z,100867.63
2023-03-10T20:14:33.016Z,100884.34
2023-03-10T20:17:00.921Z,100880.13
2023-03-10T20:19:28.882Z,100876.91
2023-03-10T20:21:56.807Z,100871.16
2023-03-10T20:24:26.143Z,100871.44
2023-03-10T20:26:56.002Z,100874.94
2023-03-10T20:29:23.995Z,100880.34
2023-03-10T20:31:52.094Z,100871.56
2023-03-10T20:34:22.117Z,100854.03
2023-03-10T20:36:50.106Z,100871.56
2023-03-10T20:39:17.992Z,100866.28
2023-03-10T20:41:48.265Z,100867.13
2023-03-10T20:44:16.406Z,100868.06
2023-03-10T20:46:44.379Z,100870.13
2023-03-10T20:49:12.898Z,100896.72
2023-03-10T20:51:41.420Z,100920.84
2023-03-10T20:54:09.405Z,100926.13
2023-03-10T20:56:37.278Z,100929.50
2023-03-10T20:59:06.541Z,100925.19
2023-03-10T21:01:39.450Z,100916.28
2023-03-10T21:04:07.499Z,100903.06
2023-03-10T21:06:35.886Z,100882.78
2023-03-10T21:09:05.912Z,100875.69
2023-03-10T21:11:33.900Z,100866.06
2023-03-10T21:14:01.873Z,100852.16
2023-03-10T21:16:31.253Z,100852.41
2023-03-10T21:18:59.185Z,100852.41
2023-03-10T21:21:27.110Z,100837.53
2023-03-10T21:23:55.050Z,100827.91
2023-03-10T21:26:22.939Z,100837.78
2023-03-10T21:28:50.969Z,100860.16
2023-03-10T21:31:18.940Z,100866.63
2023-03-10T21:33:50.188Z,100854.41
2023-03-10T21:36:19.181Z,100861.50
2023-03-10T21:38:48.830Z,100862.59
2023-03-10T21:41:17.093Z,100859.94
2023-03-10T21:43:45.101Z,100879.16
2023-03-10T21:46:13.281Z,100867.63
2023-03-10T21:48:41.393Z,100868.44
2023-03-10T21:51:11.736Z,100870.28
2023-03-10T21:53:39.612Z,100852.59
2023-03-10T21:56:08.196Z,100839.25
2023-03-10T21:58:36.094Z,100834.94
2023-03-10T22:01:04.299Z,100853.41
2023-03-10T22:03:32.325Z,100864.00
2023-03-10T22:06:00.673Z,100860.25
2023-03-10T22:08:29.953Z,100872.63
2023-03-10T22:10:57.938Z,100895.47
2023-03-10T22:13:25.922Z,100909.63
2023-03-10T22:15:54.101Z,100911.31
2023-03-10T22:18:22.017Z,100918.50
2023-03-10T22:20:49.930Z,100938.69
2023-03-10T22:23:18.008Z,100929.09
2023-03-10T22:25:47.330Z,100910.47
2023-03-10T22:28:15.255Z,100907.72
2023-03-10T22:30:43.324Z,100911.88
2023-03-10T22:33:11.294Z,100911.75
2023-03-10T22:35:39.496Z,100912.72
2023-03-10T22:38:08.133Z,100900.50
2023-03-10T22:40:36.207Z,100898.53
2023-03-10T22:43:05.488Z,100897.84
2023-03-10T22:45:33.698Z,100901.56
2023-03-10T22:48:03.596Z,100897.13
2023-03-10T22:50:33.236Z,100899.66
2023-03-10T22:53:01.193Z,100897.13
2023-03-10T22:55:34.911Z,100894.38
2023-03-10T22:58:03.006Z,100888.25
2023-03-10T23:00:32.331Z,100889.94
2023-03-10T23:03:00.375Z,100877.41
2023-03-10T23:05:28.596Z,100866.16
2023-03-10T23:07:56.556Z,100882.69
2023-03-10T23:10:25.789Z,100861.81
2023-03-10T23:12:54.052Z,100875.16
2023-03-10T23:15:25.845Z,100885.72
2023-03-10T23:17:55.727Z,100885.97
2023-03-10T23:20:26.966Z,100894.72
2023-03-10T23:22:55.168Z,100906.25
2023-03-10T23:25:24.407Z,100905.31
2023-03-10T23:27:52.381Z,100901.25
2023-03-10T23:30:20.461Z,100911.31
2023-03-10T23:32:49.331Z,100906.88
2023-03-10T23:35:20.558Z,100913.84
2023-03-10T23:37:48.537Z,100898.81
2023-03-10T23:40:17.999Z,100898.09
2023-03-10T23:42:45.923Z,100899.06
2023-03-10T23:45:14.732Z,100900.13
2023-03-10T23:47:43.033Z,100889.84
2023-03-10T23:50:12.800Z,100883.38
2023-03-10T23:52:42.347Z,100884.94
2023-03-10T23:55:12.849Z,100876.19
2023-03-10T23:57:40.756Z,100877.03
